sensor_id;sensor_type;location;lat;lon;timestamp;pressure;altitude;pressure_sealevel;temperature;humidity
48424;BME280;34232;42.502;26.014;2023-07-09T00:02:37;100154.88;;;22.18;71.85
48424;BME280;34232;42.502;26.014;2023-07-09T00:05:23;100157.09;;;22.08;71.89
48424;BME280;34232;42.502;26.014;2023-07-09T00:07:49;100168.88;;;22.07;72.56
48424;BME280;34232;42.502;26.014;2023-07-09T00:10:16;100170.09;;;22.11;72.29
48424;BME280;34232;42.502;26.014;2023-07-09T00:15:58;100170.75;;;22.13;72.18
48424;BME280;34232;42.502;26.014;2023-07-09T00:18:24;100168.66;;;22.09;72.32
48424;BME280;34232;42.502;26.014;2023-07-09T00:20:56;100165.47;;;21.98;72.64
48424;BME280;34232;42.502;26.014;2023-07-09T00:23:48;100168.91;;;21.86;72.72
48424;BME280;34232;42.502;26.014;2023-07-09T00:26:43;100178.09;;;21.77;72.97
48424;BME280;34232;42.502;26.014;2023-07-09T00:29:16;100178.91;;;21.71;72.98
48424;BME280;34232;42.502;26.014;2023-07-09T00:31:45;100183.81;;;21.67;73.60
48424;BME280;34232;42.502;26.014;2023-07-09T00:34:21;100187.09;;;21.62;73.42
48424;BME280;34232;42.502;26.014;2023-07-09T00:37:36;100175.63;;;21.47;73.43
48424;BME280;34232;42.502;26.014;2023-07-09T00:40:02;100172.72;;;21.42;73.17
48424;BME280;34232;42.502;26.014;2023-07-09T00:42:28;100178.41;;;21.33;73.57
48424;BME280;34232;42.502;26.014;2023-07-09T00:45:20;100169.50;;;21.25;73.79
48424;BME280;34232;42.502;26.014;2023-07-09T00:47:48;100179.75;;;21.22;74.02
48424;BME280;34232;42.502;26.014;2023-07-09T00:52:55;100178.97;;;21.07;74.19
48424;BME280;34232;42.502;26.014;2023-07-09T00:55:24;100179.97;;;21.06;74.40
48424;BME280;34232;42.502;26.014;2023-07-09T00:57:53;100189.78;;;20.99;74.47
48424;BME280;34232;42.502;26.014;2023-07-09T01:00:46;100192.59;;;20.90;74.50
48424;BME280;34232;42.502;26.014;2023-07-09T01:06:03;100198.22;;;20.81;75.33
48424;BME280;34232;42.502;26.014;2023-07-09T01:08:31;100194.06;;;20.78;75.96
48424;BME280;34232;42.502;26.014;2023-07-09T01:11:02;100194.47;;;20.75;76.15
48424;BME280;34232;42.502;26.014;2023-07-09T01:13:28;100200.22;;;20.72;76.36
48424;BME280;34232;42.502;26.014;2023-07-09T01:16:13;100202.97;;;20.64;76.49
48424;BME280;34232;42.502;26.014;2023-07-09T01:18:40;100193.56;;;20.68;76.96
48424;BME280;34232;42.502;26.014;2023-07-09T01:21:24;100200.56;;;20.69;76.98
48424;BME280;34232;42.502;26.014;2023-07-09T01:24:46;100211.91;;;20.71;76.86
48424;BME280;34232;42.502;26.014;2023-07-09T01:27:03;100206.75;;;20.70;76.62
48424;BME280;34232;42.502;26.014;2023-07-09T01:29:30;100207.81;;;20.54;77.59
48424;BME280;34232;42.502;26.014;2023-07-09T01:32:02;100211.31;;;20.54;77.53
48424;BME280;34232;42.502;26.014;2023-07-09T01:34:50;100214.44;;;20.58;77.10
48424;BME280;34232;42.502;26.014;2023-07-09T01:37:17;100216.09;;;20.59;77.17
48424;BME280;34232;42.502;26.014;2023-07-09T01:40:06;100217.13;;;20.58;77.03
48424;BME280;34232;42.502;26.014;2023-07-09T01:46:03;100222.56;;;20.50;77.08
48424;BME280;34232;42.502;26.014;2023-07-09T01:48:49;100215.53;;;20.49;77.48
48424;BME280;34232;42.502;26.014;2023-07-09T01:51:18;100223.75;;;20.47;77.22
48424;BME280;34232;42.502;26.014;2023-07-09T01:53:47;100225.16;;;20.43;77.15
48424;BME280;34232;42.502;26.014;2023-07-09T01:56:35;100228.22;;;20.40;77.32
48424;BME280;34232;42.502;26.014;2023-07-09T01:59:59;100242.09;;;20.36;78.17
48424;BME280;34232;42.502;26.014;2023-07-09T02:02:25;100248.13;;;20.38;78.09
48424;BME280;34232;42.502;26.014;2023-07-09T02:05:15;100253.16;;;20.33;78.00
48424;BME280;34232;42.502;26.014;2023-07-09T02:08:02;100248.81;;;20.32;78.42
48424;BME280;34232;42.502;26.014;2023-07-09T02:10:28;100245.31;;;20.31;78.63
48424;BME280;34232;42.502;26.014;2023-07-09T02:13:13;100249.47;;;20.34;78.35
48424;BME280;34232;42.502;26.014;2023-07-09T02:15:39;100251.88;;;20.29;78.86
48424;BME280;34232;42.502;26.014;2023-07-09T02:18:25;100254.09;;;20.25;78.75
48424;BME280;34232;42.502;26.014;2023-07-09T02:20:52;100262.00;;;20.18;79.52
48424;BME280;34232;42.502;26.014;2023-07-09T02:23:29;100260.44;;;20.24;79.57
48424;BME280;34232;42.502;26.014;2023-07-09T02:26:15;100258.78;;;20.23;80.20
48424;BME280;34232;42.502;26.014;2023-07-09T02:29:20;100263.31;;;20.22;80.36
48424;BME280;34232;42.502;26.014;2023-07-09T02:31:47;100267.81;;;20.22;80.66
48424;BME280;34232;42.502;26.014;2023-07-09T02:34:21;100255.56;;;20.27;80.66
48424;BME280;34232;42.502;26.014;2023-07-09T02:37:21;100267.94;;;20.29;79.76
48424;BME280;34232;42.502;26.014;2023-07-09T02:40:07;100269.56;;;20.30;79.63
48424;BME280;34232;42.502;26.014;2023-07-09T02:42:52;100265.50;;;20.34;79.35
48424;BME280;34232;42.502;26.014;2023-07-09T02:45:40;100264.69;;;20.33;78.99
48424;BME280;34232;42.502;26.014;2023-07-09T02:48:26;100267.53;;;20.32;78.42
48424;BME280;34232;42.502;26.014;2023-07-09T02:51:12;100276.03;;;20.20;78.29
48424;BME280;34232;42.502;26.014;2023-07-09T02:54:00;100272.50;;;20.20;77.82
48424;BME280;34232;42.502;26.014;2023-07-09T03:02:18;100270.38;;;20.15;77.57
48424;BME280;34232;42.502;26.014;2023-07-09T03:07:58;100272.13;;;20.08;77.68
48424;BME280;34232;42.502;26.014;2023-07-09T03:14:23;100260.59;;;19.93;78.64
48424;BME280;34232;42.502;26.014;2023-07-09T03:17:08;100266.22;;;19.98;78.87
48424;BME280;34232;42.502;26.014;2023-07-09T03:20:13;100270.66;;;20.06;78.54
48424;BME280;34232;42.502;26.014;2023-07-09T03:25:51;100267.50;;;20.02;79.08
48424;BME280;34232;42.502;26.014;2023-07-09T03:28:54;100275.47;;;20.10;78.75
48424;BME280;34232;42.502;26.014;2023-07-09T03:31:40;100276.28;;;20.11;78.37
48424;BME280;34232;42.502;26.014;2023-07-09T03:34:45;100271.78;;;20.11;78.49
48424;BME280;34232;42.502;26.014;2023-07-09T03:40:21;100272.13;;;20.08;78.38
48424;BME280;34232;42.502;26.014;2023-07-09T03:49:14;100277.19;;;20.03;79.36
48424;BME280;34232;42.502;26.014;2023-07-09T03:52:19;100265.75;;;19.95;80.32
48424;BME280;34232;42.502;26.014;2023-07-09T03:55:32;100268.09;;;20.12;80.13
48424;BME280;34232;42.502;26.014;2023-07-09T03:58:37;100267.47;;;20.25;79.96
48424;BME280;34232;42.502;26.014;2023-07-09T04:01:44;100262.38;;;20.30;80.58
48424;BME280;34232;42.502;26.014;2023-07-09T04:04:49;100267.13;;;20.43;80.86
48424;BME280;34232;42.502;26.014;2023-07-09T04:07:35;100259.75;;;20.59;81.05
48424;BME280;34232;42.502;26.014;2023-07-09T04:10:01;100262.41;;;20.74;80.89
48424;BME280;34232;42.502;26.014;2023-07-09T04:12:29;100254.25;;;20.82;81.02
48424;BME280;34232;42.502;26.014;2023-07-09T04:16:00;100258.63;;;21.05;80.82
48424;BME280;34232;42.502;26.014;2023-07-09T04:18:39;100261.75;;;21.23;79.06
48424;BME280;34232;42.502;26.014;2023-07-09T04:21:47;100263.53;;;21.37;79.10
48424;BME280;34232;42.502;26.014;2023-07-09T04:24:31;100273.81;;;21.55;77.79
48424;BME280;34232;42.502;26.014;2023-07-09T04:26:58;100272.44;;;21.65;77.10
48424;BME280;34232;42.502;26.014;2023-07-09T04:29:29;100274.59;;;21.77;77.11
48424;BME280;34232;42.502;26.014;2023-07-09T04:38:38;100267.56;;;21.97;75.78
48424;BME280;34232;42.502;26.014;2023-07-09T04:41:24;100270.78;;;22.07;75.66
48424;BME280;34232;42.502;26.014;2023-07-09T04:43:50;100270.41;;;22.17;75.66
48424;BME280;34232;42.502;26.014;2023-07-09T04:46:55;100267.63;;;22.31;75.75
48424;BME280;34232;42.502;26.014;2023-07-09T04:50:02;100275.53;;;22.40;73.69
48424;BME280;34232;42.502;26.014;2023-07-09T04:55:54;100275.69;;;22.73;71.66
48424;BME280;34232;42.502;26.014;2023-07-09T04:58:20;100278.25;;;22.87;70.70
48424;BME280;34232;42.502;26.014;2023-07-09T05:01:07;100276.25;;;23.02;69.73
48424;BME280;34232;42.502;26.014;2023-07-09T05:04:12;100280.81;;;23.22;69.35
48424;BME280;34232;42.502;26.014;2023-07-09T05:07:22;100284.59;;;23.47;69.49
48424;BME280;34232;42.502;26.014;2023-07-09T05:10:09;100277.63;;;23.72;67.36
48424;BME280;34232;42.502;26.014;2023-07-09T05:12:34;100278.47;;;23.93;66.37
48424;BME280;34232;42.502;26.014;2023-07-09T05:15:21;100278.00;;;24.22;65.81
48424;BME280;34232;42.502;26.014;2023-07-09T05:21:30;100270.03;;;24.80;63.25
48424;BME280;34232;42.502;26.014;2023-07-09T05:25:03;100274.78;;;25.23;61.59
48424;BME280;34232;42.502;26.014;2023-07-09T05:27:46;100272.50;;;25.64;60.05
48424;BME280;34232;42.502;26.014;2023-07-09T05:30:33;100275.13;;;25.96;54.57
48424;BME280;34232;42.502;26.014;2023-07-09T05:33:38;100276.91;;;26.27;50.30
48424;BME280;34232;42.502;26.014;2023-07-09T05:36:59;100274.00;;;26.46;48.43
48424;BME280;34232;42.502;26.014;2023-07-09T05:40:04;100274.94;;;26.77;47.77
48424;BME280;34232;42.502;26.014;2023-07-09T05:42:33;100273.41;;;26.99;46.69
48424;BME280;34232;42.502;26.014;2023-07-09T05:45:18;100276.81;;;27.25;45.81
48424;BME280;34232;42.502;26.014;2023-07-09T05:47:44;100273.78;;;27.44;45.64
48424;BME280;34232;42.502;26.014;2023-07-09T05:50:09;100270.59;;;27.66;43.35
48424;BME280;34232;42.502;26.014;2023-07-09T05:52:55;100280.16;;;27.92;42.85
48424;BME280;34232;42.502;26.014;2023-07-09T05:55:40;100277.44;;;28.15;41.80
48424;BME280;34232;42.502;26.014;2023-07-09T05:58:26;100271.94;;;28.33;41.12
48424;BME280;34232;42.502;26.014;2023-07-09T06:00:52;100273.69;;;28.51;41.33
48424;BME280;34232;42.502;26.014;2023-07-09T06:03:20;100269.06;;;28.63;39.52
48424;BME280;34232;42.502;26.014;2023-07-09T06:06:11;100262.47;;;28.71;39.83
48424;BME280;34232;42.502;26.014;2023-07-09T06:09:17;100266.66;;;28.90;39.35
48424;BME280;34232;42.502;26.014;2023-07-09T06:11:42;100269.09;;;29.03;39.32
48424;BME280;34232;42.502;26.014;2023-07-09T06:14:10;100263.75;;;29.08;38.32
48424;BME280;34232;42.502;26.014;2023-07-09T06:16:40;100262.91;;;29.19;38.08
48424;BME280;34232;42.502;26.014;2023-07-09T06:19:45;100262.25;;;29.29;36.99
48424;BME280;34232;42.502;26.014;2023-07-09T06:22:11;100262.00;;;29.31;37.32
48424;BME280;34232;42.502;26.014;2023-07-09T06:24:36;100256.88;;;29.46;36.94
48424;BME280;34232;42.502;26.014;2023-07-09T06:27:08;100258.09;;;29.55;36.84
48424;BME280;34232;42.502;26.014;2023-07-09T06:29:34;100254.41;;;29.61;36.02
48424;BME280;34232;42.502;26.014;2023-07-09T06:32:19;100251.22;;;29.64;36.22
48424;BME280;34232;42.502;26.014;2023-07-09T06:35:05;100243.97;;;29.70;35.86
48424;BME280;34232;42.502;26.014;2023-07-09T06:41:04;100252.19;;;29.75;35.96
48424;BME280;34232;42.502;26.014;2023-07-09T06:44:09;100246.03;;;29.79;34.60
48424;BME280;34232;42.502;26.014;2023-07-09T06:47:04;100238.84;;;29.90;35.47
48424;BME280;34232;42.502;26.014;2023-07-09T06:50:11;100239.31;;;29.99;33.42
48424;BME280;34232;42.502;26.014;2023-07-09T06:52:39;100240.38;;;29.98;31.83
48424;BME280;34232;42.502;26.014;2023-07-09T06:55:05;100231.72;;;30.01;32.25
48424;BME280;34232;42.502;26.014;2023-07-09T06:57:33;100237.22;;;30.06;32.11
48424;BME280;34232;42.502;26.014;2023-07-09T06:59:59;100241.81;;;30.05;31.75
48424;BME280;34232;42.502;26.014;2023-07-09T07:02:24;100228.66;;;30.14;31.78
48424;BME280;34232;42.502;26.014;2023-07-09T07:04:53;100236.16;;;30.07;31.11
48424;BME280;34232;42.502;26.014;2023-07-09T07:07:48;100233.50;;;30.12;31.18
48424;BME280;34232;42.502;26.014;2023-07-09T07:10:14;100233.38;;;30.02;30.93
48424;BME280;34232;42.502;26.014;2023-07-09T07:12:45;100235.06;;;30.08;30.94
48424;BME280;34232;42.502;26.014;2023-07-09T07:24:23;100241.53;;;30.02;30.15
48424;BME280;34232;42.502;26.014;2023-07-09T07:26:50;100249.56;;;30.13;30.74
48424;BME280;34232;42.502;26.014;2023-07-09T07:29:37;100243.44;;;30.23;30.52
48424;BME280;34232;42.502;26.014;2023-07-09T07:32:36;100232.66;;;30.28;29.17
48424;BME280;34232;42.502;26.014;2023-07-09T07:35:02;100231.56;;;30.29;29.43
48424;BME280;34232;42.502;26.014;2023-07-09T07:53:29;100224.06;;;30.80;29.56
48424;BME280;34232;42.502;26.014;2023-07-09T07:56:15;100233.41;;;30.89;29.26
48424;BME280;34232;42.502;26.014;2023-07-09T08:08:28;100225.13;;;31.01;29.02
48424;BME280;34232;42.502;26.014;2023-07-09T08:11:13;100227.63;;;31.07;29.52
48424;BME280;34232;42.502;26.014;2023-07-09T08:13:58;100220.16;;;31.19;28.80
48424;BME280;34232;42.502;26.014;2023-07-09T08:16:43;100227.59;;;31.29;29.33
48424;BME280;34232;42.502;26.014;2023-07-09T08:44:17;100216.13;;;31.91;27.81
48424;BME280;34232;42.502;26.014;2023-07-09T08:47:08;100206.63;;;31.98;27.44
48424;BME280;34232;42.502;26.014;2023-07-09T08:59:14;100203.00;;;32.25;27.81
48424;BME280;34232;42.502;26.014;2023-07-09T09:02:02;100207.69;;;32.40;27.35
48424;BME280;34232;42.502;26.014;2023-07-09T09:04:48;100198.16;;;32.47;26.56
48424;BME280;34232;42.502;26.014;2023-07-09T09:13:55;100206.47;;;32.73;26.30
48424;BME280;34232;42.502;26.014;2023-07-09T09:16:25;100199.41;;;32.87;27.49
48424;BME280;34232;42.502;26.014;2023-07-09T09:18:54;100206.53;;;32.93;26.48
48424;BME280;34232;42.502;26.014;2023-07-09T09:21:59;100208.69;;;32.96;26.25
48424;BME280;34232;42.502;26.014;2023-07-09T09:27:49;100208.16;;;32.99;26.97
48424;BME280;34232;42.502;26.014;2023-07-09T09:30:34;100204.38;;;32.95;25.28
48424;BME280;34232;42.502;26.014;2023-07-09T09:33:19;100213.88;;;32.97;25.59
48424;BME280;34232;42.502;26.014;2023-07-09T09:35:45;100211.44;;;32.91;25.55
48424;BME280;34232;42.502;26.014;2023-07-09T09:41:55;100204.06;;;32.91;25.80
48424;BME280;34232;42.502;26.014;2023-07-09T09:44:30;100214.72;;;33.03;26.55
48424;BME280;34232;42.502;26.014;2023-07-09T09:46:57;100204.34;;;33.00;26.15
48424;BME280;34232;42.502;26.014;2023-07-09T09:49:23;100206.00;;;33.06;26.79
48424;BME280;34232;42.502;26.014;2023-07-09T09:51:48;100201.63;;;32.90;26.11
48424;BME280;34232;42.502;26.014;2023-07-09T10:00:17;100202.47;;;33.16;24.69
48424;BME280;34232;42.502;26.014;2023-07-09T10:03:04;100204.13;;;33.22;25.31
48424;BME280;34232;42.502;26.014;2023-07-09T10:05:37;100198.41;;;33.28;24.20
48424;BME280;34232;42.502;26.014;2023-07-09T10:11:49;100195.63;;;33.03;25.19
48424;BME280;34232;42.502;26.014;2023-07-09T10:14:54;100202.75;;;33.24;26.04
48424;BME280;34232;42.502;26.014;2023-07-09T10:25:48;100186.41;;;33.55;27.23
48424;BME280;34232;42.502;26.014;2023-07-09T10:40:00;100198.38;;;33.89;23.35
48424;BME280;34232;42.502;26.014;2023-07-09T10:56:41;100198.34;;;34.04;26.17
48424;BME280;34232;42.502;26.014;2023-07-09T11:01:54;100196.16;;;33.96;25.18
48424;BME280;34232;42.502;26.014;2023-07-09T11:07:07;100192.34;;;34.02;23.53
48424;BME280;34232;42.502;26.014;2023-07-09T11:09:38;100184.13;;;34.08;24.74
48424;BME280;34232;42.502;26.014;2023-07-09T11:12:06;100184.69;;;34.04;24.62
48424;BME280;34232;42.502;26.014;2023-07-09T11:17:00;100183.59;;;34.00;24.69
48424;BME280;34232;42.502;26.014;2023-07-09T11:22:38;100174.31;;;34.01;24.23
48424;BME280;34232;42.502;26.014;2023-07-09T11:25:06;100186.91;;;33.92;25.26
48424;BME280;34232;42.502;26.014;2023-07-09T11:27:32;100177.63;;;33.83;24.90
48424;BME280;34232;42.502;26.014;2023-07-09T11:30:02;100177.63;;;33.73;25.48
48424;BME280;34232;42.502;26.014;2023-07-09T11:32:28;100179.81;;;33.86;25.71
48424;BME280;34232;42.502;26.014;2023-07-09T11:37:56;100172.72;;;33.80;26.12
48424;BME280;34232;42.502;26.014;2023-07-09T11:40:32;100169.97;;;33.85;26.51
48424;BME280;34232;42.502;26.014;2023-07-09T11:43:04;100166.09;;;34.07;26.41
48424;BME280;34232;42.502;26.014;2023-07-09T11:49:11;100167.78;;;33.67;25.75
48424;BME280;34232;42.502;26.014;2023-07-09T11:51:39;100167.28;;;33.50;25.95
48424;BME280;34232;42.502;26.014;2023-07-09T11:54:05;100157.47;;;33.33;25.09
48424;BME280;34232;42.502;26.014;2023-07-09T11:56:31;100159.09;;;33.24;24.86
48424;BME280;34232;42.502;26.014;2023-07-09T11:58:56;100156.34;;;33.29;24.91
48424;BME280;34232;42.502;26.014;2023-07-09T12:01:23;100151.97;;;33.23;25.60
48424;BME280;34232;42.502;26.014;2023-07-09T12:03:50;100149.53;;;33.32;26.81
48424;BME280;34232;42.502;26.014;2023-07-09T12:06:18;100146.00;;;33.31;24.34
48424;BME280;34232;42.502;26.014;2023-07-09T12:09:29;100141.38;;;33.27;25.80
48424;BME280;34232;42.502;26.014;2023-07-09T12:18:14;100145.44;;;33.40;25.97
48424;BME280;34232;42.502;26.014;2023-07-09T12:20:40;100142.19;;;33.38;26.00
48424;BME280;34232;42.502;26.014;2023-07-09T12:32:28;100132.88;;;33.59;25.81
48424;BME280;34232;42.502;26.014;2023-07-09T12:43:57;100132.34;;;33.06;26.90
48424;BME280;34232;42.502;26.014;2023-07-09T12:46:23;100130.69;;;32.90;27.87
48424;BME280;34232;42.502;26.014;2023-07-09T12:48:49;100117.06;;;32.95;27.92
48424;BME280;34232;42.502;26.014;2023-07-09T12:51:20;100122.22;;;33.01;28.07
48424;BME280;34232;42.502;26.014;2023-07-09T13:00:19;100123.81;;;32.72;27.61
48424;BME280;34232;42.502;26.014;2023-07-09T13:09:18;100113.13;;;32.45;27.78
48424;BME280;34232;42.502;26.014;2023-07-09T13:12:04;100120.19;;;32.36;28.47
48424;BME280;34232;42.502;26.014;2023-07-09T13:14:30;100097.84;;;32.39;29.62
48424;BME280;34232;42.502;26.014;2023-07-09T13:17:03;100104.97;;;32.55;28.92
48424;BME280;34232;42.502;26.014;2023-07-09T13:28:36;100106.06;;;32.69;28.93
48424;BME280;34232;42.502;26.014;2023-07-09T13:31:08;100101.22;;;32.77;28.48
48424;BME280;34232;42.502;26.014;2023-07-09T13:42:32;100115.31;;;32.63;27.29
48424;BME280;34232;42.502;26.014;2023-07-09T13:44:58;100106.34;;;32.68;26.94
48424;BME280;34232;42.502;26.014;2023-07-09T13:47:23;100117.84;;;32.75;28.08
48424;BME280;34232;42.502;26.014;2023-07-09T13:52:51;100110.41;;;32.50;27.54
48424;BME280;34232;42.502;26.014;2023-07-09T13:55:20;100114.22;;;32.49;27.49
48424;BME280;34232;42.502;26.014;2023-07-09T13:57:47;100110.66;;;32.49;26.77
48424;BME280;34232;42.502;26.014;2023-07-09T14:00:33;100113.09;;;32.30;26.16
48424;BME280;34232;42.502;26.014;2023-07-09T14:12:31;100105.06;;;31.56;26.94
48424;BME280;34232;42.502;26.014;2023-07-09T14:15:57;100114.06;;;31.61;27.72
48424;BME280;34232;42.502;26.014;2023-07-09T14:21:53;100111.50;;;31.87;27.43
48424;BME280;34232;42.502;26.014;2023-07-09T14:39:44;100113.47;;;32.02;27.96
48424;BME280;34232;42.502;26.014;2023-07-09T14:42:30;100106.97;;;32.08;27.49
48424;BME280;34232;42.502;26.014;2023-07-09T14:47:59;100107.47;;;31.94;27.63
48424;BME280;34232;42.502;26.014;2023-07-09T14:50:24;100106.88;;;31.87;28.00
48424;BME280;34232;42.502;26.014;2023-07-09T14:58:35;100102.75;;;31.75;29.27
48424;BME280;34232;42.502;26.014;2023-07-09T15:07:37;100111.75;;;31.80;29.93
48424;BME280;34232;42.502;26.014;2023-07-09T15:10:03;100110.13;;;31.79;29.60
48424;BME280;34232;42.502;26.014;2023-07-09T15:12:53;100106.25;;;31.70;29.94
48424;BME280;34232;42.502;26.014;2023-07-09T15:15:26;100105.44;;;31.70;30.27
48424;BME280;34232;42.502;26.014;2023-07-09T15:18:13;100112.28;;;31.82;30.97
48424;BME280;34232;42.502;26.014;2023-07-09T15:21:00;100111.81;;;31.90;30.65
48424;BME280;34232;42.502;26.014;2023-07-09T15:29:51;100116.66;;;31.83;30.46
48424;BME280;34232;42.502;26.014;2023-07-09T15:32:17;100119.38;;;31.78;30.07
48424;BME280;34232;42.502;26.014;2023-07-09T15:34:45;100118.78;;;31.71;29.33
48424;BME280;34232;42.502;26.014;2023-07-09T15:37:13;100114.91;;;31.62;29.34
48424;BME280;34232;42.502;26.014;2023-07-09T15:40:04;100108.84;;;31.55;29.67
48424;BME280;34232;42.502;26.014;2023-07-09T15:57:59;100125.13;;;31.50;28.23
48424;BME280;34232;42.502;26.014;2023-07-09T16:03:59;100132.69;;;31.38;28.86
48424;BME280;34232;42.502;26.014;2023-07-09T16:06:45;100136.47;;;31.32;29.12
48424;BME280;34232;42.502;26.014;2023-07-09T16:12:40;100145.03;;;31.18;29.31
48424;BME280;34232;42.502;26.014;2023-07-09T16:15:08;100131.84;;;31.05;29.53
48424;BME280;34232;42.502;26.014;2023-07-09T16:18:12;100136.22;;;31.06;29.70
48424;BME280;34232;42.502;26.014;2023-07-09T16:21:27;100145.44;;;31.00;30.46
48424;BME280;34232;42.502;26.014;2023-07-09T16:23:53;100133.41;;;30.96;30.38
48424;BME280;34232;42.502;26.014;2023-07-09T16:26:20;100144.56;;;30.94;30.58
48424;BME280;34232;42.502;26.014;2023-07-09T16:34:52;100143.28;;;31.07;30.59
48424;BME280;34232;42.502;26.014;2023-07-09T16:37:20;100146.09;;;31.12;31.03
48424;BME280;34232;42.502;26.014;2023-07-09T16:40:08;100144.50;;;31.16;30.88
48424;BME280;34232;42.502;26.014;2023-07-09T16:43:15;100146.13;;;31.17;31.13
48424;BME280;34232;42.502;26.014;2023-07-09T16:48:52;100150.47;;;31.13;31.88
48424;BME280;34232;42.502;26.014;2023-07-09T16:51:38;100147.19;;;31.11;32.69
48424;BME280;34232;42.502;26.014;2023-07-09T16:54:23;100152.47;;;31.01;32.85
48424;BME280;34232;42.502;26.014;2023-07-09T16:56:49;100155.69;;;30.93;32.99
48424;BME280;34232;42.502;26.014;2023-07-09T16:59:39;100152.63;;;30.84;32.38
48424;BME280;34232;42.502;26.014;2023-07-09T17:14:36;100154.78;;;30.39;31.48
48424;BME280;34232;42.502;26.014;2023-07-09T17:17:03;100154.28;;;30.42;32.20
48424;BME280;34232;42.502;26.014;2023-07-09T17:19:29;100162.19;;;30.43;33.09
48424;BME280;34232;42.502;26.014;2023-07-09T17:22:32;100160.44;;;30.32;33.52
48424;BME280;34232;42.502;26.014;2023-07-09T17:34:35;100151.66;;;29.86;34.47
48424;BME280;34232;42.502;26.014;2023-07-09T17:43:45;100163.94;;;29.39;36.47
48424;BME280;34232;42.502;26.014;2023-07-09T17:46:10;100168.13;;;29.30;36.89
48424;BME280;34232;42.502;26.014;2023-07-09T17:48:37;100164.19;;;29.20;37.30
48424;BME280;34232;42.502;26.014;2023-07-09T17:51:42;100173.69;;;29.06;37.04
48424;BME280;34232;42.502;26.014;2023-07-09T17:54:15;100167.44;;;28.89;37.62
48424;BME280;34232;42.502;26.014;2023-07-09T17:56:41;100168.88;;;28.80;37.89
48424;BME280;34232;42.502;26.014;2023-07-09T18:02:24;100171.84;;;28.67;38.09
48424;BME280;34232;42.502;26.014;2023-07-09T18:04:50;100171.41;;;28.58;38.25
48424;BME280;34232;42.502;26.014;2023-07-09T18:07:21;100180.28;;;28.53;38.29
48424;BME280;34232;42.502;26.014;2023-07-09T18:12:49;100183.47;;;28.50;38.69
48424;BME280;34232;42.502;26.014;2023-07-09T18:15:18;100183.81;;;28.42;38.85
48424;BME280;34232;42.502;26.014;2023-07-09T18:17:45;100184.09;;;28.29;39.00
48424;BME280;34232;42.502;26.014;2023-07-09T18:20:30;100187.03;;;28.28;39.29
48424;BME280;34232;42.502;26.014;2023-07-09T18:22:56;100182.38;;;28.23;39.50
48424;BME280;34232;42.502;26.014;2023-07-09T18:25:22;100197.28;;;28.14;39.94
48424;BME280;34232;42.502;26.014;2023-07-09T18:31:59;100195.69;;;27.90;39.85
48424;BME280;34232;42.502;26.014;2023-07-09T18:34:43;100209.19;;;27.78;40.74
48424;BME280;34232;42.502;26.014;2023-07-09T18:37:10;100202.84;;;27.72;40.06
48424;BME280;34232;42.502;26.014;2023-07-09T18:48:44;100221.03;;;27.42;41.61
48424;BME280;34232;42.502;26.014;2023-07-09T18:51:49;100218.97;;;27.26;41.92
48424;BME280;34232;42.502;26.014;2023-07-09T18:57:38;100220.09;;;27.06;43.40
48424;BME280;34232;42.502;26.014;2023-07-09T19:00:03;100220.84;;;26.95;44.05
48424;BME280;34232;42.502;26.014;2023-07-09T19:02:49;100224.91;;;26.86;44.10
48424;BME280;34232;42.502;26.014;2023-07-09T19:05:35;100227.69;;;26.79;44.55
48424;BME280;34232;42.502;26.014;2023-07-09T19:17:00;100228.41;;;26.38;44.50
48424;BME280;34232;42.502;26.014;2023-07-09T19:19:27;100227.44;;;26.33;44.55
48424;BME280;34232;42.502;26.014;2023-07-09T19:21:54;100222.41;;;26.36;44.33
48424;BME280;34232;42.502;26.014;2023-07-09T19:27:23;100215.69;;;26.45;43.62
48424;BME280;34232;42.502;26.014;2023-07-09T19:29:49;100220.25;;;26.45;43.79
48424;BME280;34232;42.502;26.014;2023-07-09T19:32:55;100220.59;;;26.48;43.52
48424;BME280;34232;42.502;26.014;2023-07-09T19:35:23;100226.47;;;26.45;43.69
48424;BME280;34232;42.502;26.014;2023-07-09T19:38:17;100231.41;;;26.48;43.66
48424;BME280;34232;42.502;26.014;2023-07-09T19:41:10;100230.22;;;26.44;43.70
48424;BME280;34232;42.502;26.014;2023-07-09T19:43:55;100224.84;;;26.44;43.76
48424;BME280;34232;42.502;26.014;2023-07-09T19:47:01;100227.66;;;26.31;44.24
48424;BME280;34232;42.502;26.014;2023-07-09T19:52:53;100236.88;;;25.99;45.31
48424;BME280;34232;42.502;26.014;2023-07-09T19:55:31;100225.63;;;25.84;45.50
48424;BME280;34232;42.502;26.014;2023-07-09T19:58:43;100232.88;;;25.65;45.84
48424;BME280;34232;42.502;26.014;2023-07-09T20:01:11;100225.00;;;25.57;46.32
48424;BME280;34232;42.502;26.014;2023-07-09T20:03:58;100225.66;;;25.52;46.95
48424;BME280;34232;42.502;26.014;2023-07-09T20:07:08;100227.81;;;25.43;47.27
48424;BME280;34232;42.502;26.014;2023-07-09T20:10:17;100237.41;;;25.33;48.02
48424;BME280;34232;42.502;26.014;2023-07-09T20:12:43;100242.47;;;25.23;48.39
48424;BME280;34232;42.502;26.014;2023-07-09T20:15:15;100233.00;;;25.14;48.44
48424;BME280;34232;42.502;26.014;2023-07-09T20:17:46;100240.53;;;24.98;48.66
48424;BME280;34232;42.502;26.014;2023-07-09T20:20:57;100245.53;;;24.88;49.40
48424;BME280;34232;42.502;26.014;2023-07-09T20:27:22;100235.66;;;24.69;50.01
48424;BME280;34232;42.502;26.014;2023-07-09T20:30:17;100246.44;;;24.69;50.35